Time;durP1;ratioP1;P1;durP2;ratioP2;P2;SDS_P1;SDS_P2;PMS_P1;PMS_P2;Temp;Humidity;BMP_temperature;BMP_pressure;BME280_temperature;BME280_humidity;BME280_pressure;Samples;Min_cycle;Max_cycle;Signal;HPM_P1;HPM_P2
2023/03/09 00:01:26;;;;;;;29.55;13.40;;;;;;;1.60;71.22;99385.97;4995834;28;20036;-65
2023/03/09 00:03:52;;;;;;;37.15;13.52;;;;;;;1.59;71.80;99381.72;4997139;28;20368;-63
2023/03/09 00:06:17;;;;;;;29.27;13.00;;;;;;;1.60;71.47;99375.59;4997557;28;20122;-59
2023/03/09 00:08:44;;;;;;;19.23;9.05;;;;;;;1.60;71.52;99373.88;4997545;28;20044;-65
2023/03/09 00:11:09;;;;;;;33.00;12.90;;;;;;;1.63;71.82;99370.28;4999597;28;20037;-63
2023/03/09 00:13:35;;;;;;;33.22;13.57;;;;;;;1.63;71.62;99371.16;4998850;28;20033;-62
2023/03/09 00:16:13;;;;;;;30.75;14.07;;;;;;;1.63;71.59;99370.28;4995321;28;20026;-61
2023/03/09 00:18:40;;;;;;;27.98;12.80;;;;;;;1.61;71.54;99370.38;4993010;28;20080;-64
2023/03/09 00:21:05;;;;;;;35.22;13.82;;;;;;;1.64;71.62;99385.81;4994758;28;20035;-64
2023/03/09 00:23:32;;;;;;;29.70;14.38;;;;;;;1.65;71.47;99390.09;4996978;28;20029;-64
2023/03/09 00:26:05;;;;;;;33.63;14.25;;;;;;;1.65;71.61;99400.47;5001342;28;20049;-64
2023/03/09 00:28:30;;;;;;;31.50;14.52;;;;;;;1.65;71.91;99402.19;4992161;28;20036;-64
2023/03/09 00:31:01;;;;;;;39.72;14.70;;;;;;;1.65;71.61;99409.97;4986726;28;20033;-63
2023/03/09 00:33:27;;;;;;;30.23;14.25;;;;;;;1.66;71.64;99414.25;4991878;28;20061;-64
2023/03/09 00:35:52;;;;;;;37.88;15.50;;;;;;;1.68;71.56;99402.06;4998555;28;20057;-64
2023/03/09 00:38:18;;;;;;;32.70;14.77;;;;;;;1.67;71.72;99395.19;4990716;28;20026;-63
2023/03/09 00:40:43;;;;;;;34.30;14.23;;;;;;;1.67;71.83;99390.00;5003243;28;20030;-64
2023/03/09 00:43:09;;;;;;;28.40;13.60;;;;;;;1.66;71.82;99393.50;4995751;28;20022;-65
2023/03/09 00:45:34;;;;;;;35.30;15.88;;;;;;;1.67;72.01;99393.44;4982285;28;20080;-64
2023/03/09 00:48:00;;;;;;;33.42;13.65;;;;;;;1.60;71.87;99388.56;4991326;28;20049;-65
2023/03/09 00:50:25;;;;;;;30.25;13.77;;;;;;;1.61;71.78;99390.25;4995322;28;20041;-64
2023/03/09 00:52:51;;;;;;;29.88;14.07;;;;;;;1.63;71.65;99393.63;4996394;28;20313;-63
2023/03/09 00:55:16;;;;;;;34.47;14.20;;;;;;;1.61;72.02;99387.66;4997193;28;20048;-61
2023/03/09 00:57:42;;;;;;;33.58;12.35;;;;;;;1.59;71.86;99386.91;4998740;28;20038;-62
2023/03/09 01:00:11;;;;;;;38.25;14.50;;;;;;;1.56;72.27;99387.03;4994394;28;20057;-64
2023/03/09 01:02:36;;;;;;;30.83;13.50;;;;;;;1.57;72.20;99396.50;5001935;28;20065;-63
2023/03/09 01:05:02;;;;;;;21.33;9.73;;;;;;;1.56;72.38;99400.81;4991288;28;20076;-63
2023/03/09 01:07:29;;;;;;;27.90;12.73;;;;;;;1.61;72.15;99395.44;5010126;28;20098;-64
2023/03/09 01:09:55;;;;;;;30.48;12.60;;;;;;;1.61;72.08;99390.25;5001428;28;20068;-64
2023/03/09 01:12:20;;;;;;;29.80;12.60;;;;;;;1.56;72.09;99372.31;5004718;28;20475;-61
2023/03/09 01:14:48;;;;;;;35.95;14.48;;;;;;;1.53;72.49;99367.25;4998497;28;20042;-64
2023/03/09 01:17:14;;;;;;;27.60;13.73;;;;;;;1.54;71.99;99357.72;4996684;28;20025;-63
2023/03/09 01:19:39;;;;;;;34.38;14.63;;;;;;;1.50;72.34;99363.03;4987531;28;20420;-61
2023/03/09 01:22:05;;;;;;;32.28;13.85;;;;;;;1.47;72.14;99351.97;5001706;28;20049;-64
2023/03/09 01:24:30;;;;;;;15.15;8.50;;;;;;;1.46;72.09;99361.47;5001916;28;20052;-67
2023/03/09 01:26:56;;;;;;;36.20;14.73;;;;;;;1.46;72.04;99361.47;5006248;28;21248;-58
2023/03/09 01:29:21;;;;;;;35.10;14.25;;;;;;;1.44;72.41;99360.69;4991546;28;20037;-63
2023/03/09 01:31:47;;;;;;;33.83;14.63;;;;;;;1.43;72.16;99353.84;4993377;28;20033;-56
2023/03/09 01:34:12;;;;;;;30.40;13.90;;;;;;;1.41;72.27;99350.47;4998394;28;20060;-58
2023/03/09 01:36:39;;;;;;;33.08;13.50;;;;;;;1.44;72.31;99352.09;5006052;28;20040;-60
2023/03/09 01:39:04;;;;;;;31.02;14.77;;;;;;;1.44;72.14;99357.28;5001361;28;20034;-64
2023/03/09 01:41:30;;;;;;;31.58;14.57;;;;;;;1.44;71.95;99357.28;4995697;28;20049;-58
2023/03/09 01:43:56;;;;;;;36.30;14.98;;;;;;;1.43;72.15;99358.19;5003588;28;20515;-60
2023/03/09 01:46:30;;;;;;;33.13;14.65;;;;;;;1.39;72.28;99354.88;4993856;28;20030;-65
2023/03/09 01:49:01;;;;;;;31.65;14.23;;;;;;;1.36;72.31;99366.19;4991602;28;20034;-60
2023/03/09 01:51:35;;;;;;;29.55;13.05;;;;;;;1.36;72.16;99373.97;4992969;28;20127;-65
2023/03/09 01:54:03;;;;;;;26.65;13.90;;;;;;;1.39;72.37;99373.03;5001251;28;20034;-60
2023/03/09 01:56:30;;;;;;;32.53;13.38;;;;;;;1.44;71.89;99368.47;4997099;28;20435;-60
2023/03/09 01:58:56;;;;;;;28.00;12.45;;;;;;;1.45;71.69;99371.91;4992702;28;20030;-63
2023/03/09 02:01:22;;;;;;;26.08;13.23;;;;;;;1.40;71.84;99371.25;5002604;28;20026;-58
2023/03/09 02:03:55;;;;;;;22.88;11.68;;;;;;;1.34;71.77;99368.03;5004940;28;20033;-60
2023/03/09 02:06:21;;;;;;;24.55;11.82;;;;;;;1.33;71.95;99368.94;5002944;28;20022;-57
2023/03/09 02:09:01;;;;;;;31.65;12.48;;;;;;;1.34;71.88;99364.59;5007875;28;20036;-58
2023/03/09 02:11:26;;;;;;;29.48;12.95;;;;;;;1.34;71.51;99364.59;5001540;28;20476;-59
2023/03/09 02:13:53;;;;;;;26.83;11.65;;;;;;;1.34;71.51;99367.19;4996649;28;20049;-60
2023/03/09 02:16:19;;;;;;;26.08;12.18;;;;;;;1.31;71.90;99356.94;4998937;28;20464;-55
2023/03/09 02:18:44;;;;;;;35.25;12.18;;;;;;;1.32;71.58;99356.03;4993284;28;20028;-60
2023/03/09 02:21:32;;;;;;;28.67;12.90;;;;;;;1.31;71.88;99364.72;5002255;28;20030;-62
2023/03/09 02:24:04;;;;;;;25.23;11.35;;;;;;;1.31;71.68;99360.38;4993039;28;20059;-65
2023/03/09 02:26:42;;;;;;;28.05;11.55;;;;;;;1.33;71.84;99360.31;4993625;28;20036;-62
2023/03/09 02:29:08;;;;;;;26.33;12.32;;;;;;;1.34;71.76;99354.22;4996723;28;20029;-65
2023/03/09 02:31:34;;;;;;;29.17;12.02;;;;;;;1.31;71.26;99347.44;4995972;28;20562;-62
2023/03/09 02:34:00;;;;;;;31.35;12.55;;;;;;;1.28;71.64;99349.31;4993760;28;20057;-65
2023/03/09 02:36:26;;;;;;;25.25;11.57;;;;;;;1.24;71.95;99351.16;4996601;28;20032;-64
2023/03/09 02:38:51;;;;;;;22.35;11.63;;;;;;;1.23;71.80;99346.88;5001821;28;20420;-63
2023/03/09 02:41:19;;;;;;;25.58;11.93;;;;;;;1.25;71.46;99357.22;4995568;28;22450;-63
2023/03/09 02:43:52;;;;;;;27.20;11.20;;;;;;;1.23;71.56;99348.66;4997205;28;20484;-61
2023/03/09 02:46:18;;;;;;;24.25;10.25;;;;;;;1.24;71.59;99351.16;4990635;28;20038;-66
2023/03/09 02:48:44;;;;;;;20.40;10.27;;;;;;;1.21;71.60;99346.97;4995780;28;20426;-62
2023/03/09 02:51:09;;;;;;;24.42;10.57;;;;;;;1.24;71.72;99350.34;4999692;28;20029;-66
2023/03/09 02:53:36;;;;;;;21.58;10.15;;;;;;;1.22;71.45;99347.78;5001957;28;20046;-63
2023/03/09 02:56:02;;;;;;;23.95;10.73;;;;;;;1.22;71.57;99345.19;4998445;28;20072;-58
2023/03/09 02:58:27;;;;;;;26.10;10.48;;;;;;;1.23;71.75;99346.88;4987098;28;20057;-59
2023/03/09 03:00:53;;;;;;;25.00;10.20;;;;;;;1.24;71.57;99345.16;4994473;28;20089;-62
2023/03/09 03:03:20;;;;;;;19.95;9.60;;;;;;;1.29;71.82;99338.00;4993559;28;20080;-63
2023/03/09 03:05:46;;;;;;;21.92;10.25;;;;;;;1.29;71.33;99333.69;5004448;28;20040;-62
2023/03/09 03:08:12;;;;;;;25.65;10.85;;;;;;;1.28;71.35;99332.00;5013158;28;20519;-64
2023/03/09 03:10:37;;;;;;;20.98;10.02;;;;;;;1.28;71.70;99331.19;5002078;28;20033;-62
2023/03/09 03:13:03;;;;;;;25.60;11.00;;;;;;;1.27;71.61;99337.25;4997796;28;20061;-62
2023/03/09 03:15:28;;;;;;;24.55;11.00;;;;;;;1.29;71.76;99338.00;4990533;28;20049;-65
2023/03/09 03:17:54;;;;;;;21.67;10.55;;;;;;;1.31;71.45;99336.19;4995405;28;20049;-62
2023/03/09 03:20:19;;;;;;;15.40;7.78;;;;;;;1.30;71.68;99334.50;5002600;28;20042;-63
2023/03/09 03:22:45;;;;;;;21.33;9.55;;;;;;;1.33;71.89;99334.38;4997559;28;20057;-64
2023/03/09 03:25:11;;;;;;;20.92;9.82;;;;;;;1.35;71.73;99338.63;4987641;28;20413;-61
2023/03/09 03:27:37;;;;;;;26.80;9.45;;;;;;;1.37;71.52;99343.72;4995082;28;20046;-63
2023/03/09 03:30:03;;;;;;;18.00;9.65;;;;;;;1.37;71.89;99341.13;4985423;28;20163;-60
2023/03/09 03:32:29;;;;;;;21.02;9.80;;;;;;;1.36;71.40;99334.28;4994498;28;20037;-62
2023/03/09 03:34:55;;;;;;;21.35;9.45;;;;;;;1.39;71.51;99344.50;4989640;28;20115;-62
2023/03/09 03:37:20;;;;;;;18.27;9.82;;;;;;;1.42;71.68;99351.31;4996147;28;20033;-62
2023/03/09 03:39:46;;;;;;;20.45;9.60;;;;;;;1.42;71.66;99351.31;5002746;28;20049;-63
2023/03/09 03:42:11;;;;;;;24.90;10.68;;;;;;;1.43;71.32;99343.50;4992886;28;20076;-64
2023/03/09 03:44:36;;;;;;;22.80;10.68;;;;;;;1.45;71.47;99354.59;4996174;28;20044;-61
2023/03/09 03:47:02;;;;;;;15.55;8.35;;;;;;;1.45;71.25;99364.97;4993206;28;20030;-61
2023/03/09 03:49:28;;;;;;;19.45;9.10;;;;;;;1.49;71.42;99361.34;4997287;28;20121;-64
2023/03/09 03:51:53;;;;;;;23.83;10.70;;;;;;;1.54;71.23;99355.13;4993763;28;20034;-61
2023/03/09 03:54:19;;;;;;;19.55;9.82;;;;;;;1.56;71.27;99355.91;4989226;28;20034;-65
2023/03/09 03:56:45;;;;;;;18.73;8.75;;;;;;;1.58;71.01;99346.31;4992709;28;20044;-65
2023/03/09 03:59:10;;;;;;;22.55;9.00;;;;;;;1.59;70.84;99346.25;4991672;28;20482;-65
2023/03/09 04:01:36;;;;;;;18.77;9.73;;;;;;;1.61;71.12;99353.94;4990017;28;20411;-66
2023/03/09 04:04:02;;;;;;;17.05;9.07;;;;;;;1.62;70.75;99351.31;4997274;28;20034;-58
2023/03/09 04:06:28;;;;;;;20.33;9.88;;;;;;;1.62;70.55;99348.72;5000446;28;20030;-60
2023/03/09 04:08:53;;;;;;;20.35;8.90;;;;;;;1.65;70.98;99350.31;4999271;28;20053;-62
2023/03/09 04:11:19;;;;;;;17.00;9.00;;;;;;;1.66;70.61;99339.06;4998265;28;20025;-62
2023/03/09 04:13:48;;;;;;;19.50;8.85;;;;;;;1.66;70.84;99341.63;4996248;28;20068;-58
2023/03/09 04:16:13;;;;;;;18.95;8.57;;;;;;;1.70;70.38;99338.00;4985355;28;20091;-61
2023/03/09 04:18:39;;;;;;;28.60;10.77;;;;;;;1.75;70.53;99345.59;4995754;28;20369;-61
2023/03/09 04:21:04;;;;;;;33.08;12.30;;;;;;;1.77;70.46;99339.41;4993452;28;20041;-60
2023/03/09 04:23:30;;;;;;;20.13;9.32;;;;;;;1.74;70.19;99339.53;4994667;28;20060;-63
2023/03/09 04:26:00;;;;;;;20.15;10.35;;;;;;;1.74;70.48;99344.72;4994978;28;20030;-62
2023/03/09 04:28:26;;;;;;;20.27;8.38;;;;;;;1.74;70.42;99346.50;4986143;28;20172;-62
2023/03/09 04:30:53;;;;;;;18.88;9.38;;;;;;;1.71;70.47;99339.69;4995677;28;20120;-63
2023/03/09 04:33:19;;;;;;;16.80;8.18;;;;;;;1.72;70.55;99335.34;4990210;28;20038;-59
2023/03/09 04:35:44;;;;;;;16.35;8.70;;;;;;;1.71;70.20;99337.09;5003920;28;20022;-59
2023/03/09 04:38:10;;;;;;;15.05;8.18;;;;;;;1.70;70.76;99343.19;4996704;28;20033;-59
2023/03/09 04:40:36;;;;;;;17.08;8.57;;;;;;;1.71;70.69;99341.44;4993565;28;20573;-65
2023/03/09 04:43:03;;;;;;;17.65;8.77;;;;;;;1.67;70.71;99328.59;4994838;28;20029;-63
2023/03/09 04:45:28;;;;;;;20.58;7.68;;;;;;;1.67;70.83;99330.38;4992809;28;20029;-62
2023/03/09 04:47:54;;;;;;;20.25;9.45;;;;;;;1.68;71.03;99339.84;4997130;28;20061;-60
2023/03/09 04:50:20;;;;;;;19.30;9.80;;;;;;;1.67;71.01;99338.13;4997486;28;20167;-61
2023/03/09 04:52:45;;;;;;;17.77;8.88;;;;;;;1.62;71.21;99340.09;4999986;28;20037;-61
2023/03/09 04:55:11;;;;;;;16.20;7.43;;;;;;;1.60;71.03;99340.16;4996680;28;20060;-59
2023/03/09 04:57:36;;;;;;;15.20;7.85;;;;;;;1.57;71.40;99331.69;4990092;28;20476;-65
2023/03/09 05:00:04;;;;;;;22.13;8.30;;;;;;;1.55;71.39;99325.72;4998178;28;20085;-62
2023/03/09 05:02:30;;;;;;;15.98;7.38;;;;;;;1.55;71.25;99320.53;4997720;28;20034;-62
2023/03/09 05:04:56;;;;;;;16.30;8.00;;;;;;;1.55;71.15;99330.91;4992792;28;20388;-61
2023/03/09 05:07:22;;;;;;;18.70;7.80;;;;;;;1.53;71.37;99336.13;4993328;28;20034;-65
2023/03/09 05:09:48;;;;;;;19.02;8.00;;;;;;;1.49;71.44;99335.44;4997974;28;20105;-63
2023/03/09 05:12:14;;;;;;;23.33;9.65;;;;;;;1.51;71.20;99344.00;4989536;28;20049;-62
2023/03/09 05:14:40;;;;;;;18.15;7.95;;;;;;;1.50;71.54;99339.72;5010887;28;20126;-60
2023/03/09 05:17:05;;;;;;;19.23;8.13;;;;;;;1.52;71.39;99344.81;4997347;28;20030;-59
2023/03/09 05:19:31;;;;;;;13.02;6.72;;;;;;;1.49;71.21;99342.38;4995546;28;20081;-59
2023/03/09 05:21:56;;;;;;;14.50;7.20;;;;;;;1.49;71.58;99339.78;4996100;28;20033;-62
2023/03/09 05:24:22;;;;;;;17.55;7.80;;;;;;;1.49;71.24;99338.03;5009846;28;20038;-61
2023/03/09 05:26:47;;;;;;;13.60;7.07;;;;;;;1.46;71.58;99342.50;4998352;28;20030;-65
2023/03/09 05:29:13;;;;;;;16.02;8.18;;;;;;;1.41;71.39;99342.72;4992380;28;20161;-55
2023/03/09 05:31:38;;;;;;;14.45;7.20;;;;;;;1.38;71.68;99340.22;4993242;28;20439;-63
2023/03/09 05:34:04;;;;;;;18.17;7.95;;;;;;;1.37;71.70;99341.13;5007432;28;20030;-60
2023/03/09 05:36:31;;;;;;;19.05;8.43;;;;;;;1.37;71.83;99346.31;4992868;28;20034;-64
2023/03/09 05:38:56;;;;;;;21.95;8.10;;;;;;;1.37;71.75;99346.31;4980620;28;20080;-65
2023/03/09 05:41:22;;;;;;;16.33;7.68;;;;;;;1.34;71.59;99344.72;4989819;28;21179;-60
2023/03/09 05:43:47;;;;;;;15.68;7.82;;;;;;;1.33;71.72;99358.56;4992598;28;20057;-62
2023/03/09 05:46:15;;;;;;;17.48;7.70;;;;;;;1.39;72.00;99356.63;4997062;28;20018;-62
2023/03/09 05:48:41;;;;;;;16.23;7.78;;;;;;;1.43;71.76;99355.59;4986643;28;20424;-58
2023/03/09 05:51:10;;;;;;;16.02;7.43;;;;;;;1.45;71.73;99358.97;4996452;28;20088;-59
2023/03/09 05:53:36;;;;;;;20.25;8.95;;;;;;;1.45;71.71;99364.97;4994130;28;20038;-64
2023/03/09 05:56:03;;;;;;;19.75;8.35;;;;;;;1.47;72.24;99363.16;4994619;28;20033;-66
2023/03/09 05:58:29;;;;;;;21.42;8.75;;;;;;;1.46;71.63;99366.66;4991584;28;20030;-62
2023/03/09 06:00:56;;;;;;;15.02;7.53;;;;;;;1.47;71.89;99373.53;4990818;28;20436;-64
2023/03/09 06:03:22;;;;;;;16.52;7.28;;;;;;;1.56;71.88;99374.91;4984715;28;20035;-61
2023/03/09 06:05:47;;;;;;;20.42;7.45;;;;;;;1.59;71.50;99372.19;4997974;28;20033;-61
2023/03/09 06:08:14;;;;;;;15.25;6.55;;;;;;;1.61;71.31;99374.69;5003135;28;20025;-61
2023/03/09 06:10:39;;;;;;;14.43;7.80;;;;;;;1.60;71.37;99373.00;5005085;28;20025;-64
2023/03/09 06:13:05;;;;;;;20.70;8.52;;;;;;;1.58;71.40;99375.69;4996047;28;20041;-63
2023/03/09 06:15:32;;;;;;;14.85;6.60;;;;;;;1.57;71.34;99383.53;5003226;28;20022;-62
2023/03/09 06:17:57;;;;;;;20.60;8.13;;;;;;;1.59;71.53;99392.94;4996834;28;20535;-65
2023/03/09 06:20:23;;;;;;;16.23;7.55;;;;;;;1.60;71.43;99392.03;5000755;28;20061;-66
2023/03/09 06:22:48;;;;;;;16.60;8.25;;;;;;;1.59;71.71;99386.91;4994926;28;20021;-62
2023/03/09 06:25:14;;;;;;;15.43;7.10;;;;;;;1.61;71.63;99390.25;4998801;28;20048;-62
2023/03/09 06:27:39;;;;;;;16.10;7.40;;;;;;;1.64;71.59;99390.13;5000129;28;20041;-65
2023/03/09 06:30:06;;;;;;;16.65;7.25;;;;;;;1.67;71.46;99400.38;5002373;28;20485;-61
2023/03/09 06:32:32;;;;;;;15.82;7.50;;;;;;;1.67;71.72;99405.56;5000480;28;20030;-59
2023/03/09 06:34:58;;;;;;;19.38;8.05;;;;;;;1.68;71.80;99422.81;5004273;28;20030;-61
2023/03/09 06:37:24;;;;;;;17.58;7.82;;;;;;;1.70;71.88;99421.00;4992934;28;20037;-59
2023/03/09 06:39:49;;;;;;;18.98;9.18;;;;;;;1.69;71.59;99416.72;4996540;28;20501;-62
2023/03/09 06:42:14;;;;;;;15.85;7.20;;;;;;;1.71;71.56;99420.09;5002657;28;20084;-60
2023/03/09 06:44:42;;;;;;;18.98;8.50;;;;;;;1.71;71.79;99427.03;4996819;28;20030;-59
2023/03/09 06:47:09;;;;;;;20.42;9.43;;;;;;;1.72;72.01;99421.78;4997599;28;20034;-62
2023/03/09 06:49:34;;;;;;;19.33;8.27;;;;;;;1.76;71.79;99422.50;4998904;28;20053;-61
2023/03/09 06:52:00;;;;;;;23.40;9.57;;;;;;;1.80;72.18;99424.88;4996246;28;20123;-61
2023/03/09 06:54:26;;;;;;;19.40;8.95;;;;;;;1.81;71.84;99431.75;4995674;28;20081;-59
2023/03/09 06:56:52;;;;;;;22.05;10.70;;;;;;;1.83;71.85;99444.66;5008931;28;20436;-60
2023/03/09 06:59:18;;;;;;;16.13;8.57;;;;;;;1.80;72.24;99453.41;5000333;28;20038;-62
2023/03/09 07:01:43;;;;;;;16.70;8.45;;;;;;;1.78;71.68;99457.81;4998551;28;20036;-60
2023/03/09 07:04:09;;;;;;;18.63;7.93;;;;;;;1.77;72.14;99461.31;4999635;28;20034;-61
2023/03/09 07:06:34;;;;;;;18.02;8.27;;;;;;;1.77;72.04;99463.91;4998740;28;20033;-60
2023/03/09 07:08:59;;;;;;;19.20;8.80;;;;;;;1.81;72.13;99473.25;4997549;28;20045;-61
2023/03/09 07:11:25;;;;;;;21.58;9.18;;;;;;;1.85;72.19;99470.53;5003445;28;20423;-61
2023/03/09 07:13:50;;;;;;;18.48;9.07;;;;;;;1.90;72.18;99474.63;5008439;28;20424;-60
2023/03/09 07:16:16;;;;;;;18.85;8.10;;;;;;;2.00;71.74;99467.31;5007733;28;20033;-59
2023/03/09 07:18:41;;;;;;;18.88;8.13;;;;;;;2.04;71.63;99479.22;5007234;28;20068;-62
2023/03/09 07:21:09;;;;;;;18.38;8.15;;;;;;;2.05;71.63;99488.69;5007964;28;20500;-61
2023/03/09 07:23:34;;;;;;;19.35;8.27;;;;;;;2.05;71.74;99491.28;5007180;28;20034;-62
2023/03/09 07:26:01;;;;;;;13.38;7.32;;;;;;;2.10;71.37;99491.09;5007838;28;20042;-62
2023/03/09 07:28:26;;;;;;;13.35;7.10;;;;;;;2.16;71.32;99495.19;5004319;28;20689;-59
2023/03/09 07:30:52;;;;;;;24.80;8.35;;;;;;;2.23;71.06;99504.38;5007971;28;20038;-58
2023/03/09 07:33:17;;;;;;;17.00;7.85;;;;;;;2.32;70.78;99504.00;5000823;28;20034;-63
2023/03/09 07:35:43;;;;;;;16.40;7.68;;;;;;;2.36;70.81;99508.13;5005246;28;20037;-58
2023/03/09 07:38:08;;;;;;;20.55;6.95;;;;;;;2.40;70.73;99504.50;5001059;28;20038;-59
2023/03/09 07:40:34;;;;;;;14.23;7.32;;;;;;;2.44;70.44;99516.44;5008582;28;20029;-62
2023/03/09 07:42:59;;;;;;;13.88;6.70;;;;;;;2.51;70.62;99517.03;5006352;28;20047;-61
2023/03/09 07:45:25;;;;;;;13.52;6.47;;;;;;;2.58;70.31;99522.78;5013674;28;20030;-60
2023/03/09 07:47:50;;;;;;;16.05;7.18;;;;;;;2.62;70.15;99529.53;5010099;28;20397;-62
2023/03/09 07:50:16;;;;;;;18.13;8.27;;;;;;;2.67;70.40;99535.34;5007045;28;20403;-64
2023/03/09 07:52:42;;;;;;;15.77;7.38;;;;;;;2.71;70.15;99534.31;5007038;28;20544;-63
2023/03/09 07:55:10;;;;;;;20.20;7.50;;;;;;;2.79;70.08;99535.75;5006783;28;20033;-62
2023/03/09 07:57:36;;;;;;;17.63;7.60;;;;;;;2.83;69.71;99534.66;5013538;28;20021;-62
2023/03/09 08:00:05;;;;;;;16.52;7.97;;;;;;;2.81;69.79;99526.94;5004980;28;20037;-61
2023/03/09 08:02:31;;;;;;;14.65;7.03;;;;;;;2.74;69.94;99528.13;5013454;28;20392;-63
2023/03/09 08:04:57;;;;;;;17.27;7.57;;;;;;;2.68;70.19;99542.22;5008210;28;20026;-62
2023/03/09 08:07:22;;;;;;;16.58;7.35;;;;;;;2.64;70.12;99553.69;5004372;28;20137;-62
2023/03/09 08:09:48;;;;;;;18.00;7.53;;;;;;;2.61;70.00;99556.41;5005112;28;20038;-61
2023/03/09 08:12:13;;;;;;;18.42;7.32;;;;;;;2.61;70.33;99556.41;5003967;28;20029;-63
2023/03/09 08:14:39;;;;;;;19.50;8.10;;;;;;;2.62;70.04;99555.50;5010100;28;20034;-59
2023/03/09 08:17:04;;;;;;;17.55;8.38;;;;;;;2.61;69.91;99559.00;5010453;28;20041;-60
2023/03/09 08:19:30;;;;;;;15.25;7.93;;;;;;;2.64;70.16;99551.09;5006717;28;20480;-58
2023/03/09 08:21:56;;;;;;;12.48;6.53;;;;;;;2.65;70.18;99555.34;5006129;28;20121;-59
2023/03/09 08:24:22;;;;;;;15.98;7.28;;;;;;;2.68;69.88;99559.59;5009867;28;20108;-59
2023/03/09 08:26:48;;;;;;;17.15;7.82;;;;;;;2.68;70.01;99560.41;5007705;28;20384;-63
2023/03/09 08:29:14;;;;;;;14.70;6.90;;;;;;;2.66;69.85;99567.44;5005822;28;20037;-61
2023/03/09 08:31:39;;;;;;;14.23;7.95;;;;;;;2.65;69.84;99573.53;5005781;28;20108;-60
2023/03/09 08:34:05;;;;;;;15.80;6.65;;;;;;;2.67;70.01;99589.91;5007305;28;20053;-61
2023/03/09 08:36:31;;;;;;;11.02;6.03;;;;;;;2.66;69.73;99583.00;5009166;28;20117;-63
2023/03/09 08:38:58;;;;;;;11.05;6.32;;;;;;;2.67;69.81;99584.69;5005853;28;20080;-63
2023/03/09 08:41:23;;;;;;;12.57;7.53;;;;;;;2.74;69.58;99590.47;5007446;28;20038;-60
2023/03/09 08:43:50;;;;;;;12.23;5.82;;;;;;;2.78;69.47;99586.00;5009713;28;20144;-63
2023/03/09 08:46:16;;;;;;;15.13;7.55;;;;;;;2.79;69.00;99588.53;5005532;28;20495;-60
2023/03/09 08:48:42;;;;;;;14.95;6.60;;;;;;;2.80;69.12;99598.00;5013712;28;20060;-62
2023/03/09 08:51:10;;;;;;;13.88;6.70;;;;;;;2.81;68.91;99601.44;5009880;28;20037;-60
2023/03/09 08:53:37;;;;;;;15.00;7.20;;;;;;;2.85;69.32;99609.06;5006325;28;20026;-63
2023/03/09 08:56:07;;;;;;;13.10;7.25;;;;;;;2.91;69.17;99607.94;5001288;28;20019;-60
2023/03/09 08:58:34;;;;;;;12.90;6.70;;;;;;;2.91;69.00;99618.34;5005420;28;20504;-62
2023/03/09 09:01:00;;;;;;;15.50;7.18;;;;;;;2.89;68.88;99614.94;5012392;28;20115;-62
2023/03/09 09:03:28;;;;;;;16.52;7.65;;;;;;;2.87;68.80;99615.00;5001127;28;20105;-63
2023/03/09 09:05:53;;;;;;;19.55;6.90;;;;;;;2.88;68.89;99610.66;5000610;28;20058;-63
2023/03/09 09:08:19;;;;;;;11.63;5.13;;;;;;;2.90;68.68;99617.47;5003318;28;20061;-61
2023/03/09 09:10:45;;;;;;;12.15;4.60;;;;;;;2.90;68.60;99622.66;5005374;28;20037;-60
2023/03/09 09:13:10;;;;;;;16.70;6.93;;;;;;;2.92;68.46;99612.22;5003625;28;20509;-62
2023/03/09 09:15:37;;;;;;;17.58;7.85;;;;;;;2.96;68.51;99615.53;5005204;28;20041;-62
2023/03/09 09:18:04;;;;;;;15.57;6.03;;;;;;;3.01;68.34;99624.78;5005751;28;20113;-60
2023/03/09 09:20:29;;;;;;;12.73;6.07;;;;;;;3.11;68.23;99624.38;4989075;28;20131;-63
2023/03/09 09:22:54;;;;;;;15.07;7.85;;;;;;;3.16;67.95;99622.44;5001320;28;20116;-62
2023/03/09 09:25:20;;;;;;;11.90;6.43;;;;;;;3.24;67.83;99620.34;5004585;28;20049;-59
2023/03/09 09:27:50;;;;;;;14.57;6.85;;;;;;;3.39;67.69;99620.56;5006670;28;20041;-60
2023/03/09 09:30:16;;;;;;;14.73;6.63;;;;;;;3.44;67.51;99623.75;5010255;28;20041;-59
2023/03/09 09:32:42;;;;;;;19.95;8.35;;;;;;;3.52;67.11;99624.28;5008320;28;20113;-61
2023/03/09 09:35:08;;;;;;;14.27;6.18;;;;;;;3.56;67.13;99631.00;5009273;28;20848;-63
2023/03/09 09:37:33;;;;;;;12.52;6.75;;;;;;;3.58;66.95;99626.56;5010279;28;20025;-62
2023/03/09 09:39:59;;;;;;;15.30;6.68;;;;;;;3.61;67.09;99639.44;5008237;28;20045;-60
2023/03/09 09:42:39;;;;;;;16.27;6.78;;;;;;;3.63;66.98;99642.00;5013280;28;20042;-62
2023/03/09 09:45:21;;;;;;;15.43;6.40;;;;;;;3.58;67.15;99641.34;5005526;28;20023;-61
2023/03/09 09:47:47;;;;;;;12.57;5.85;;;;;;;3.58;67.13;99652.59;5011192;28;20037;-61
2023/03/09 09:50:14;;;;;;;11.73;5.95;;;;;;;3.59;67.27;99656.88;5009038;28;20031;-62
2023/03/09 09:52:59;;;;;;;13.77;5.72;;;;;;;3.60;67.35;99653.34;5012903;28;20057;-63
2023/03/09 09:55:31;;;;;;;13.63;6.10;;;;;;;3.58;67.28;99665.59;5011708;28;21028;-62
2023/03/09 09:58:15;;;;;;;12.52;6.82;;;;;;;3.56;67.50;99672.63;5009125;28;20037;-63
2023/03/09 10:00:46;;;;;;;16.77;6.38;;;;;;;3.58;67.45;99681.19;5009692;28;20116;-60
2023/03/09 10:03:36;;;;;;;11.68;6.22;;;;;;;3.51;67.54;99680.63;5004996;28;20519;-59
2023/03/09 10:06:09;;;;;;;12.02;6.97;;;;;;;3.41;67.86;99683.72;5007857;28;20057;-61
2023/03/09 10:08:50;;;;;;;14.77;6.28;;;;;;;3.41;68.16;99686.31;5003906;28;20497;-61
2023/03/09 10:11:34;;;;;;;14.65;6.25;;;;;;;3.41;68.22;99689.78;5010433;28;20025;-61
2023/03/09 10:14:07;;;;;;;10.75;5.75;;;;;;;3.41;68.28;99702.78;5006841;28;20037;-61
2023/03/09 10:16:40;;;;;;;12.13;6.13;;;;;;;3.39;68.27;99699.41;5005288;28;20396;-61
2023/03/09 10:19:15;;;;;;;11.65;5.95;;;;;;;3.35;68.65;99698.69;5002353;28;20417;-61
2023/03/09 10:21:42;;;;;;;11.63;6.25;;;;;;;3.33;68.50;99702.25;4999431;28;20026;-61
2023/03/09 10:24:25;;;;;;;13.95;6.68;;;;;;;3.33;68.44;99710.06;5007440;28;20037;-59
2023/03/09 10:27:13;;;;;;;15.77;6.57;;;;;;;3.33;68.53;99716.13;5008854;28;20034;-58
2023/03/09 10:30:11;;;;;;;12.23;6.70;;;;;;;3.30;68.45;99708.44;5007388;28;20491;-59
2023/03/09 10:32:39;;;;;;;10.73;5.10;;;;;;;3.30;68.58;99710.22;5004792;28;20041;-59
2023/03/09 10:35:32;;;;;;;12.32;6.32;;;;;;;3.27;68.72;99712.94;5006099;28;20105;-59
2023/03/09 10:37:59;;;;;;;13.02;4.55;;;;;;;3.25;68.48;99715.63;5004038;28;20556;-61
2023/03/09 10:40:30;;;;;;;10.80;5.90;;;;;;;3.29;68.63;99716.34;5009067;28;20132;-59
2023/03/09 10:43:00;;;;;;;12.43;6.50;;;;;;;3.31;68.40;99710.13;5007194;28;20396;-60
2023/03/09 10:45:28;;;;;;;16.15;7.20;;;;;;;3.36;68.38;99709.94;5009778;28;20486;-60
2023/03/09 10:48:03;;;;;;;14.32;6.55;;;;;;;3.45;68.13;99721.69;5008423;28;20026;-58
2023/03/09 10:50:35;;;;;;;11.80;7.38;;;;;;;3.50;68.03;99715.34;5005849;28;20026;-58
2023/03/09 10:53:48;;;;;;;13.50;6.68;;;;;;;3.57;67.73;99717.69;5005368;28;20113;-60
2023/03/09 10:56:44;;;;;;;15.43;6.40;;;;;;;3.58;67.84;99722.81;5007272;28;20041;-58
2023/03/09 10:59:17;;;;;;;11.30;6.82;;;;;;;3.56;67.95;99729.84;5001749;28;20038;-58
2023/03/09 11:01:48;;;;;;;12.52;5.95;;;;;;;3.57;67.87;99733.31;5008276;28;20018;-58
2023/03/09 11:04:28;;;;;;;13.98;6.53;;;;;;;3.59;67.76;99724.50;5007558;28;20037;-60
2023/03/09 11:06:59;;;;;;;12.63;6.43;;;;;;;3.65;67.57;99745.06;5007578;28;20037;-59
2023/03/09 11:09:37;;;;;;;19.25;8.88;;;;;;;3.70;67.62;99736.22;5007738;28;20041;-62
2023/03/09 11:12:09;;;;;;;12.63;5.93;;;;;;;3.67;67.68;99747.56;5005112;28;20069;-59
2023/03/09 11:14:42;;;;;;;11.93;6.13;;;;;;;3.65;67.39;99750.25;5015349;28;20088;-62
2023/03/09 11:17:24;;;;;;;11.13;6.10;;;;;;;3.63;67.55;99751.25;5010090;28;20104;-62
2023/03/09 11:19:49;;;;;;;16.15;8.55;;;;;;;3.61;67.86;99748.69;5006255;28;20034;-58
2023/03/09 11:22:16;;;;;;;15.63;7.50;;;;;;;3.62;67.82;99750.41;5007695;28;20038;-61
2023/03/09 11:24:45;;;;;;;14.57;6.80;;;;;;;3.57;68.01;99754.94;5005659;28;20053;-61
2023/03/09 11:27:18;;;;;;;15.70;8.05;;;;;;;3.56;68.21;99755.03;5006767;28;20033;-62
2023/03/09 11:30:02;;;;;;;13.57;7.57;;;;;;;3.55;68.05;99761.13;5007246;28;20043;-61
2023/03/09 11:32:27;;;;;;;13.80;7.18;;;;;;;3.59;68.37;99763.53;5006248;28;20026;-61
2023/03/09 11:34:53;;;;;;;14.57;7.35;;;;;;;3.59;68.11;99768.72;5006636;28;20030;-63